RRR4238 KMSY-KBLH
Flight info
| Callsign | RRR4238 |
|---|---|
| Flight time | N/A |
| Altitude | 32000 |
| Route | LFT DCT LCH J2 IAH J86 CUZZZ DCT SPURS DCT KEMPL J2 FST DCT TXSAS DCT DMN Q180 WOBUG DCT ZEBOL |
| Aircraft | A400/H-SGHIRWXY/LB1 |
Departure
| Time | 2026-05-06 11:50 |
|---|---|
| Airport | Louis Armstrong New Orleans International Airport (KMSY) |
Arrival
| Time | N/A |
|---|---|
| Airport | Blythe Airport (KBLH) |
| Time | Latitude | Longitude | Altitude | Speed | Heading |
|---|---|---|---|---|---|
| 2026-05-06 11:38 | 29.99755 | -90.26304 | 20 ft | 0 kts | 195° |
| 2026-05-06 11:45 | 29.99729 | -90.26312 | 22 ft | 6 kts | 200° |
| 2026-05-06 11:46 | 29.99656 | -90.26338 | 19 ft | 15 kts | 197° |
| 2026-05-06 11:46 | 29.99536 | -90.26376 | 19 ft | 20 kts | 194° |
| 2026-05-06 11:46 | 29.99476 | -90.26442 | 21 ft | 6 kts | 258° |
| 2026-05-06 11:46 | 29.99483 | -90.26480 | 19 ft | 7 kts | 286° |
| 2026-05-06 11:47 | 29.99504 | -90.26572 | 20 ft | 16 kts | 284° |
| 2026-05-06 11:47 | 29.99538 | -90.26716 | 22 ft | 22 kts | 288° |
| 2026-05-06 11:47 | 29.99586 | -90.26899 | 21 ft | 25 kts | 286° |
| 2026-05-06 11:47 | 29.99634 | -90.27108 | 17 ft | 29 kts | 283° |
| 2026-05-06 11:48 | 29.99681 | -90.27289 | 17 ft | 22 kts | 285° |
| 2026-05-06 11:48 | 29.99718 | -90.27454 | 14 ft | 20 kts | 285° |
| 2026-05-06 11:48 | 29.99748 | -90.27589 | 14 ft | 16 kts | 275° |
| 2026-05-06 11:48 | 29.99692 | -90.27679 | 12 ft | 14 kts | 201° |
| 2026-05-06 11:49 | 29.99625 | -90.27695 | 10 ft | 8 kts | 193° |
| 2026-05-06 11:49 | 29.99565 | -90.27701 | 10 ft | 8 kts | 160° |
| 2026-05-06 11:49 | 29.99535 | -90.27647 | 10 ft | 7 kts | 99° |
| 2026-05-06 11:49 | 29.99495 | -90.27489 | 11 ft | 64 kts | 106° |
| 2026-05-06 11:50 | 29.99276 | -90.26573 | 90 ft | 160 kts | 105° |
| 2026-05-06 11:50 | 29.98936 | -90.25191 | 590 ft | 193 kts | 106° |
| 2026-05-06 11:50 | 29.98577 | -90.23634 | 1351 ft | 211 kts | 96° |
| 2026-05-06 11:50 | 29.99229 | -90.21970 | 2006 ft | 255 kts | 42° |
| 2026-05-06 11:51 | 30.00940 | -90.21199 | 2691 ft | 279 kts | 355° |
| 2026-05-06 11:51 | 30.02777 | -90.21835 | 3403 ft | 286 kts | 323° |
| 2026-05-06 11:51 | 30.04375 | -90.23152 | 4557 ft | 275 kts | 313° |
| 2026-05-06 11:51 | 30.05615 | -90.24793 | 5782 ft | 268 kts | 300° |
| 2026-05-06 11:52 | 30.06514 | -90.26677 | 6850 ft | 267 kts | 286° |
| 2026-05-06 11:52 | 30.07006 | -90.28709 | 7907 ft | 266 kts | 277° |
| 2026-05-06 11:52 | 30.07302 | -90.30827 | 9033 ft | 267 kts | 274° |
| 2026-05-06 11:52 | 30.07516 | -90.32972 | 10129 ft | 270 kts | 274° |
| 2026-05-06 11:53 | 30.07718 | -90.35196 | 10775 ft | 289 kts | 273° |
| 2026-05-06 11:53 | 30.07916 | -90.37588 | 11208 ft | 308 kts | 273° |
| 2026-05-06 11:53 | 30.08113 | -90.40101 | 11821 ft | 317 kts | 273° |
| 2026-05-06 11:53 | 30.08308 | -90.42632 | 12515 ft | 322 kts | 273° |
| 2026-05-06 11:54 | 30.08506 | -90.45233 | 13256 ft | 327 kts | 273° |
| 2026-05-06 11:54 | 30.08706 | -90.47859 | 13972 ft | 330 kts | 273° |
| 2026-05-06 11:54 | 30.08907 | -90.50508 | 14676 ft | 332 kts | 274° |
| 2026-05-06 11:54 | 30.09110 | -90.53171 | 15419 ft | 333 kts | 274° |
| 2026-05-06 11:55 | 30.09312 | -90.55836 | 16159 ft | 334 kts | 274° |
| 2026-05-06 11:55 | 30.09515 | -90.58513 | 16891 ft | 335 kts | 274° |
| 2026-05-06 11:55 | 30.09718 | -90.61210 | 17641 ft | 337 kts | 274° |
| 2026-05-06 11:55 | 30.09922 | -90.63912 | 18369 ft | 339 kts | 274° |
| 2026-05-06 11:56 | 30.10126 | -90.66633 | 19004 ft | 341 kts | 274° |
| 2026-05-06 11:56 | 30.10330 | -90.69365 | 19620 ft | 343 kts | 274° |
| 2026-05-06 11:56 | 30.10536 | -90.72121 | 20226 ft | 345 kts | 274° |
| 2026-05-06 11:56 | 30.10742 | -90.74893 | 20831 ft | 347 kts | 274° |
| 2026-05-06 11:57 | 30.10949 | -90.77681 | 21421 ft | 350 kts | 274° |
| 2026-05-06 11:57 | 30.11156 | -90.80489 | 22010 ft | 352 kts | 274° |
| 2026-05-06 11:57 | 30.11365 | -90.83322 | 22595 ft | 354 kts | 274° |
| 2026-05-06 11:57 | 30.11571 | -90.86127 | 23124 ft | 356 kts | 274° |
| 2026-05-06 11:58 | 30.11781 | -90.88983 | 23609 ft | 358 kts | 274° |
| 2026-05-06 11:58 | 30.11991 | -90.91856 | 24028 ft | 359 kts | 274° |
| 2026-05-06 11:58 | 30.12201 | -90.94735 | 24435 ft | 360 kts | 274° |
| 2026-05-06 11:58 | 30.12410 | -90.97622 | 24837 ft | 360 kts | 274° |
| 2026-05-06 11:59 | 30.12620 | -91.00515 | 25217 ft | 361 kts | 274° |
| 2026-05-06 11:59 | 30.12829 | -91.03409 | 25579 ft | 362 kts | 274° |
| 2026-05-06 11:59 | 30.13037 | -91.06313 | 25912 ft | 363 kts | 274° |
| 2026-05-06 11:59 | 30.13246 | -91.09224 | 26234 ft | 364 kts | 274° |
| 2026-05-06 12:00 | 30.13455 | -91.12138 | 26528 ft | 365 kts | 274° |
| 2026-05-06 12:00 | 30.13663 | -91.15059 | 26839 ft | 365 kts | 273° |
| 2026-05-06 12:00 | 30.13868 | -91.17942 | 27166 ft | 364 kts | 273° |
| 2026-05-06 12:00 | 30.14075 | -91.20854 | 27543 ft | 362 kts | 273° |
| 2026-05-06 12:01 | 30.14279 | -91.23747 | 27938 ft | 359 kts | 273° |
| 2026-05-06 12:01 | 30.14482 | -91.26617 | 28335 ft | 357 kts | 273° |
| 2026-05-06 12:01 | 30.14682 | -91.29474 | 28737 ft | 355 kts | 273° |
| 2026-05-06 12:01 | 30.14879 | -91.32280 | 29147 ft | 352 kts | 273° |
| 2026-05-06 12:02 | 30.15075 | -91.35099 | 29566 ft | 350 kts | 273° |
| 2026-05-06 12:02 | 30.15270 | -91.37897 | 29986 ft | 348 kts | 273° |
| 2026-05-06 12:02 | 30.15397 | -91.39729 | 30215 ft | 346 kts | 273° |
| 2026-05-06 12:02 | 30.15589 | -91.42506 | 30519 ft | 346 kts | 273° |
| 2026-05-06 12:03 | 30.15780 | -91.45278 | 30822 ft | 345 kts | 273° |
| 2026-05-06 12:03 | 30.16032 | -91.48949 | 31218 ft | 345 kts | 273° |
| 2026-05-06 12:03 | 30.16159 | -91.50813 | 31434 ft | 344 kts | 273° |
| 2026-05-06 12:03 | 30.16345 | -91.53535 | 31751 ft | 343 kts | 272° |
| 2026-05-06 12:04 | 30.16532 | -91.56273 | 31998 ft | 342 kts | 272° |
| 2026-05-06 12:04 | 30.16720 | -91.59053 | 31966 ft | 343 kts | 272° |
| 2026-05-06 12:04 | 30.17088 | -91.64492 | 31941 ft | 341 kts | 272° |
| 2026-05-06 12:05 | 30.17457 | -91.69980 | 31943 ft | 341 kts | 272° |
| 2026-05-06 12:05 | 30.17819 | -91.75414 | 31940 ft | 341 kts | 272° |
| 2026-05-06 12:06 | 30.18183 | -91.80895 | 31941 ft | 341 kts | 272° |
| 2026-05-06 12:06 | 30.18541 | -91.86337 | 31935 ft | 341 kts | 272° |
| 2026-05-06 12:07 | 30.18900 | -91.91812 | 31945 ft | 341 kts | 272° |
| 2026-05-06 12:07 | 30.19255 | -91.97286 | 31944 ft | 341 kts | 271° |
| 2026-05-06 12:08 | 30.19226 | -92.02760 | 31944 ft | 340 kts | 267° |
| 2026-05-06 12:08 | 30.19018 | -92.08196 | 31941 ft | 340 kts | 266° |
| 2026-05-06 12:09 | 30.18771 | -92.13637 | 31942 ft | 340 kts | 266° |
| 2026-05-06 12:09 | 30.18522 | -92.19098 | 31941 ft | 340 kts | 266° |
| 2026-05-06 12:10 | 30.18276 | -92.24556 | 31939 ft | 340 kts | 266° |
| 2026-05-06 12:10 | 30.18031 | -92.30021 | 31944 ft | 340 kts | 266° |
| 2026-05-06 12:11 | 30.17785 | -92.35450 | 31936 ft | 339 kts | 266° |
| 2026-05-06 12:11 | 30.17536 | -92.40904 | 31938 ft | 339 kts | 266° |
| 2026-05-06 12:12 | 30.17285 | -92.46356 | 31936 ft | 339 kts | 266° |
| 2026-05-06 12:12 | 30.17032 | -92.51782 | 31936 ft | 339 kts | 266° |
| 2026-05-06 12:13 | 30.16776 | -92.57240 | 31939 ft | 339 kts | 265° |
| 2026-05-06 12:13 | 30.16518 | -92.62670 | 31939 ft | 339 kts | 265° |
| 2026-05-06 12:14 | 30.16258 | -92.68123 | 31946 ft | 339 kts | 265° |
| 2026-05-06 12:14 | 30.15997 | -92.73544 | 31938 ft | 339 kts | 265° |
| 2026-05-06 12:15 | 30.15732 | -92.78993 | 31939 ft | 339 kts | 265° |
| 2026-05-06 12:15 | 30.15466 | -92.84415 | 31934 ft | 339 kts | 265° |
| 2026-05-06 12:16 | 30.15197 | -92.89858 | 31932 ft | 339 kts | 265° |
| 2026-05-06 12:16 | 30.14925 | -92.95303 | 31928 ft | 339 kts | 265° |
| 2026-05-06 12:17 | 30.14652 | -93.00727 | 31926 ft | 339 kts | 265° |
| 2026-05-06 12:17 | 30.14377 | -93.06170 | 31930 ft | 339 kts | 265° |
| 2026-05-06 12:18 | 30.14083 | -93.11581 | 31925 ft | 339 kts | 264° |
| 2026-05-06 12:18 | 30.13697 | -93.17010 | 31925 ft | 338 kts | 264° |
| 2026-05-06 12:19 | 30.13281 | -93.22439 | 31924 ft | 338 kts | 264° |
| 2026-05-06 12:19 | 30.12868 | -93.27821 | 31926 ft | 338 kts | 264° |
| 2026-05-06 12:20 | 30.12457 | -93.33252 | 31934 ft | 338 kts | 264° |
| 2026-05-06 12:20 | 30.12047 | -93.38658 | 31934 ft | 338 kts | 264° |
| 2026-05-06 12:21 | 30.11635 | -93.44084 | 31934 ft | 339 kts | 264° |
| 2026-05-06 12:21 | 30.11219 | -93.49512 | 31933 ft | 338 kts | 264° |
| 2026-05-06 12:22 | 30.10804 | -93.54907 | 31931 ft | 339 kts | 263° |
| 2026-05-06 12:22 | 30.10384 | -93.60335 | 31927 ft | 338 kts | 263° |
| 2026-05-06 12:23 | 30.09965 | -93.65725 | 31924 ft | 339 kts | 263° |
| 2026-05-06 12:23 | 30.09540 | -93.71155 | 31920 ft | 338 kts | 263° |
| 2026-05-06 12:24 | 30.09116 | -93.76541 | 31933 ft | 338 kts | 263° |
| 2026-05-06 12:24 | 30.08686 | -93.81977 | 31939 ft | 339 kts | 263° |
| 2026-05-06 12:25 | 30.08259 | -93.87356 | 31936 ft | 338 kts | 263° |
| 2026-05-06 12:25 | 30.07826 | -93.92773 | 31933 ft | 337 kts | 263° |
| 2026-05-06 12:26 | 30.07394 | -93.98149 | 31899 ft | 337 kts | 263° |
| 2026-05-06 12:26 | 30.06957 | -94.03562 | 31897 ft | 337 kts | 263° |
| 2026-05-06 12:27 | 30.06522 | -94.08930 | 31914 ft | 337 kts | 263° |
| 2026-05-06 12:27 | 30.06081 | -94.14331 | 31917 ft | 337 kts | 263° |
| 2026-05-06 12:28 | 30.05641 | -94.19704 | 31918 ft | 337 kts | 263° |
| 2026-05-06 12:28 | 30.05195 | -94.25116 | 31917 ft | 337 kts | 263° |
| 2026-05-06 12:29 | 30.04750 | -94.30486 | 31914 ft | 337 kts | 263° |
| 2026-05-06 12:29 | 30.04300 | -94.35898 | 31914 ft | 337 kts | 263° |
| 2026-05-06 12:30 | 30.03850 | -94.41268 | 31909 ft | 339 kts | 263° |
| 2026-05-06 12:30 | 30.03393 | -94.46706 | 31906 ft | 340 kts | 263° |
| 2026-05-06 12:31 | 30.02936 | -94.52116 | 31906 ft | 340 kts | 263° |
| 2026-05-06 12:31 | 30.02474 | -94.57563 | 31900 ft | 340 kts | 263° |
| 2026-05-06 12:32 | 30.02012 | -94.62982 | 31898 ft | 340 kts | 263° |
| 2026-05-06 12:32 | 30.01549 | -94.68381 | 31896 ft | 340 kts | 263° |
| 2026-05-06 12:33 | 30.01081 | -94.73815 | 31892 ft | 340 kts | 263° |
| 2026-05-06 12:33 | 30.00611 | -94.79247 | 31892 ft | 340 kts | 263° |
| 2026-05-06 12:34 | 30.00141 | -94.84651 | 31895 ft | 340 kts | 262° |
| 2026-05-06 12:34 | 29.99666 | -94.90082 | 31889 ft | 340 kts | 262° |
| 2026-05-06 12:35 | 29.99189 | -94.95517 | 31898 ft | 340 kts | 262° |
| 2026-05-06 12:35 | 29.98713 | -95.00915 | 31891 ft | 339 kts | 262° |
| 2026-05-06 12:36 | 29.98232 | -95.06333 | 31893 ft | 339 kts | 262° |
| 2026-05-06 12:36 | 29.97752 | -95.11723 | 31895 ft | 339 kts | 262° |
| 2026-05-06 12:37 | 29.97269 | -95.17121 | 31895 ft | 339 kts | 262° |
| 2026-05-06 12:37 | 29.96781 | -95.22553 | 31897 ft | 339 kts | 262° |
| 2026-05-06 12:38 | 29.96296 | -95.27926 | 31897 ft | 339 kts | 262° |
| 2026-05-06 12:38 | 29.95924 | -95.33354 | 31902 ft | 340 kts | 266° |
| 2026-05-06 12:39 | 29.96383 | -95.38835 | 31899 ft | 344 kts | 274° |
| 2026-05-06 12:39 | 29.97206 | -95.44256 | 31898 ft | 345 kts | 275° |
| 2026-05-06 12:40 | 29.98105 | -95.49711 | 31896 ft | 345 kts | 276° |
| 2026-05-06 12:40 | 29.98996 | -95.55163 | 31896 ft | 345 kts | 275° |
| 2026-05-06 12:41 | 29.99868 | -95.60587 | 31901 ft | 345 kts | 275° |
| 2026-05-06 12:41 | 30.00732 | -95.66020 | 31848 ft | 343 kts | 275° |
| 2026-05-06 12:42 | 30.01593 | -95.71453 | 31859 ft | 343 kts | 275° |
| 2026-05-06 12:42 | 30.02452 | -95.76894 | 31870 ft | 344 kts | 275° |
| 2026-05-06 12:43 | 30.03307 | -95.82315 | 31831 ft | 345 kts | 275° |
| 2026-05-06 12:43 | 30.04166 | -95.87773 | 31834 ft | 345 kts | 275° |
| 2026-05-06 12:44 | 30.05017 | -95.93199 | 31825 ft | 345 kts | 275° |
| 2026-05-06 12:44 | 30.05870 | -95.98652 | 31782 ft | 345 kts | 275° |
| 2026-05-06 12:45 | 30.06717 | -96.04083 | 31775 ft | 345 kts | 275° |
| 2026-05-06 12:46 | 30.07984 | -96.12231 | 31727 ft | 345 kts | 274° |
| 2026-05-06 12:46 | 30.08828 | -96.17684 | 31716 ft | 345 kts | 274° |
| 2026-05-06 12:47 | 30.09670 | -96.23138 | 31716 ft | 345 kts | 274° |
| 2026-05-06 12:47 | 30.10508 | -96.28575 | 31714 ft | 345 kts | 274° |
| 2026-05-06 12:48 | 30.11343 | -96.34018 | 31706 ft | 345 kts | 274° |
| 2026-05-06 12:48 | 30.12180 | -96.39483 | 31712 ft | 345 kts | 274° |
| 2026-05-06 12:49 | 30.13012 | -96.44929 | 31709 ft | 345 kts | 274° |
| 2026-05-06 12:49 | 30.13845 | -96.50402 | 31716 ft | 345 kts | 274° |
| 2026-05-06 12:50 | 30.14535 | -96.54946 | 31729 ft | 345 kts | 274° |